sensor_id;sensor_type;location;lat;lon;timestamp;pressure;altitude;pressure_sealevel;temperature;humidity
54308;BME280;40208;39.778;2.710;2023-08-06T00:00:46;101292.81;;;21.54;87.36
54308;BME280;40208;39.778;2.710;2023-08-06T00:03:31;101254.78;;;21.35;86.36
54308;BME280;40208;39.778;2.710;2023-08-06T00:06:16;101361.66;;;22.03;85.94
54308;BME280;40208;39.778;2.710;2023-08-06T00:09:01;101234.94;;;21.25;85.22
54308;BME280;40208;39.778;2.710;2023-08-06T00:11:46;101372.94;;;22.09;85.42
54308;BME280;40208;39.778;2.710;2023-08-06T00:14:31;101369.09;;;22.11;85.38
54308;BME280;40208;39.778;2.710;2023-08-06T00:17:16;101369.25;;;22.10;86.02
54308;BME280;40208;39.778;2.710;2023-08-06T00:20:01;101369.25;;;22.10;85.82
54308;BME280;40208;39.778;2.710;2023-08-06T00:22:50;101242.75;;;21.39;84.46
54308;BME280;40208;39.778;2.710;2023-08-06T00:25:35;101373.66;;;22.11;84.39
54308;BME280;40208;39.778;2.710;2023-08-06T00:28:20;101371.09;;;22.09;84.98
54308;BME280;40208;39.778;2.710;2023-08-06T00:31:05;101343.88;;;21.90;84.49
54308;BME280;40208;39.778;2.710;2023-08-06T00:33:50;101353.38;;;21.84;84.45
54308;BME280;40208;39.778;2.710;2023-08-06T00:36:35;101374.13;;;22.16;82.47
54308;BME280;40208;39.778;2.710;2023-08-06T00:39:20;101321.53;;;21.55;81.86
54308;BME280;40208;39.778;2.710;2023-08-06T00:42:05;101265.56;;;21.03;83.32
54308;BME280;40208;39.778;2.710;2023-08-06T00:44:49;101372.69;;;21.68;84.28
54308;BME280;40208;39.778;2.710;2023-08-06T00:47:34;101372.69;;;21.68;85.12
54308;BME280;40208;39.778;2.710;2023-08-06T00:50:19;101332.63;;;21.52;86.14
54308;BME280;40208;39.778;2.710;2023-08-06T00:53:06;101347.56;;;21.56;86.25
54308;BME280;40208;39.778;2.710;2023-08-06T00:55:51;101364.84;;;21.76;86.67
54308;BME280;40208;39.778;2.710;2023-08-06T00:58:36;101369.97;;;21.79;86.16
54308;BME280;40208;39.778;2.710;2023-08-06T01:01:21;101341.41;;;21.54;86.43
54308;BME280;40208;39.778;2.710;2023-08-06T01:04:06;101379.78;;;21.80;86.32
54308;BME280;40208;39.778;2.710;2023-08-06T01:15:47;101358.34;;;21.68;86.46
54308;BME280;40208;39.778;2.710;2023-08-06T01:18:34;101310.38;;;21.37;85.81
54308;BME280;40208;39.778;2.710;2023-08-06T01:21:19;101239.06;;;20.85;85.64
54308;BME280;40208;39.778;2.710;2023-08-06T01:24:03;101323.91;;;21.26;84.95
54308;BME280;40208;39.778;2.710;2023-08-06T01:26:53;101361.59;;;21.50;86.01
54308;BME280;40208;39.778;2.710;2023-08-06T01:29:45;101339.22;;;21.37;86.24
54308;BME280;40208;39.778;2.710;2023-08-06T01:32:34;101366.63;;;21.55;84.31
54308;BME280;40208;39.778;2.710;2023-08-06T01:35:21;101353.00;;;21.34;84.49
54308;BME280;40208;39.778;2.710;2023-08-06T01:38:06;101324.06;;;20.80;85.04
54308;BME280;40208;39.778;2.710;2023-08-06T01:40:50;101361.59;;;21.05;86.48
54308;BME280;40208;39.778;2.710;2023-08-06T01:43:35;101362.97;;;20.88;87.93
54308;BME280;40208;39.778;2.710;2023-08-06T01:46:20;101364.72;;;20.54;88.51
54308;BME280;40208;39.778;2.710;2023-08-06T01:49:05;101366.97;;;20.60;89.06
54308;BME280;40208;39.778;2.710;2023-08-06T01:51:49;101285.59;;;20.20;91.12
54308;BME280;40208;39.778;2.710;2023-08-06T01:54:34;101357.41;;;20.67;91.77
54308;BME280;40208;39.778;2.710;2023-08-06T01:57:18;101185.94;;;19.73;91.40
54308;BME280;40208;39.778;2.710;2023-08-06T02:00:04;101367.25;;;20.91;91.68
54308;BME280;40208;39.778;2.710;2023-08-06T02:02:49;101374.09;;;21.06;91.40
54308;BME280;40208;39.778;2.710;2023-08-06T02:05:33;101288.97;;;20.57;89.88
54308;BME280;40208;39.778;2.710;2023-08-06T02:08:18;101362.56;;;21.15;88.99
54308;BME280;40208;39.778;2.710;2023-08-06T02:11:03;101354.47;;;21.04;88.32
54308;BME280;40208;39.778;2.710;2023-08-06T02:13:48;101315.50;;;20.86;87.86
54308;BME280;40208;39.778;2.710;2023-08-06T02:16:33;101270.44;;;20.41;89.50
54308;BME280;40208;39.778;2.710;2023-08-06T02:19:17;101334.50;;;20.95;89.90
54308;BME280;40208;39.778;2.710;2023-08-06T02:22:02;101259.09;;;20.60;88.98
54308;BME280;40208;39.778;2.710;2023-08-06T02:24:49;101231.09;;;20.39;88.44
54308;BME280;40208;39.778;2.710;2023-08-06T02:27:34;101270.47;;;20.64;88.80
54308;BME280;40208;39.778;2.710;2023-08-06T02:30:19;101263.75;;;20.69;88.38
54308;BME280;40208;39.778;2.710;2023-08-06T02:33:03;101182.81;;;20.13;86.84
54308;BME280;40208;39.778;2.710;2023-08-06T02:35:49;101337.19;;;20.95;87.30
54308;BME280;40208;39.778;2.710;2023-08-06T02:38:33;101359.75;;;21.06;87.40
54308;BME280;40208;39.778;2.710;2023-08-06T02:41:18;101338.78;;;20.75;87.82
54308;BME280;40208;39.778;2.710;2023-08-06T02:44:03;101350.94;;;20.81;88.99
54308;BME280;40208;39.778;2.710;2023-08-06T02:46:48;101209.72;;;19.79;89.57
54308;BME280;40208;39.778;2.710;2023-08-06T02:49:33;101344.88;;;20.66;90.15
54308;BME280;40208;39.778;2.710;2023-08-06T02:52:18;101238.25;;;19.93;89.81
54308;BME280;40208;39.778;2.710;2023-08-06T02:55:03;101244.28;;;19.97;91.05
54308;BME280;40208;39.778;2.710;2023-08-06T02:57:48;101271.75;;;20.13;91.64
54308;BME280;40208;39.778;2.710;2023-08-06T03:00:33;101228.00;;;19.98;91.42
54308;BME280;40208;39.778;2.710;2023-08-06T03:03:18;101250.19;;;20.13;91.14
54308;BME280;40208;39.778;2.710;2023-08-06T03:06:02;101216.84;;;19.91;90.90
54308;BME280;40208;39.778;2.710;2023-08-06T03:08:47;101328.09;;;20.63;91.32
54308;BME280;40208;39.778;2.710;2023-08-06T03:11:32;101294.31;;;20.34;89.88
54308;BME280;40208;39.778;2.710;2023-08-06T03:14:17;101297.03;;;20.46;89.67
54308;BME280;40208;39.778;2.710;2023-08-06T03:17:02;101317.06;;;20.08;91.03
54308;BME280;40208;39.778;2.710;2023-08-06T03:19:47;101262.47;;;19.82;91.67
54308;BME280;40208;39.778;2.710;2023-08-06T03:22:32;101176.97;;;19.37;92.45
54308;BME280;40208;39.778;2.710;2023-08-06T03:25:17;101308.41;;;20.27;92.76
54308;BME280;40208;39.778;2.710;2023-08-06T03:28:02;101318.81;;;20.20;92.77
54308;BME280;40208;39.778;2.710;2023-08-06T03:30:47;101170.59;;;19.27;93.97
54308;BME280;40208;39.778;2.710;2023-08-06T03:33:32;101202.34;;;19.22;94.78
54308;BME280;40208;39.778;2.710;2023-08-06T03:36:17;101273.41;;;19.67;95.76
54308;BME280;40208;39.778;2.710;2023-08-06T03:39:01;101198.75;;;19.34;95.85
54308;BME280;40208;39.778;2.710;2023-08-06T03:41:46;101324.53;;;20.16;95.91
54308;BME280;40208;39.778;2.710;2023-08-06T03:44:31;101298.69;;;20.13;96.78
54308;BME280;40208;39.778;2.710;2023-08-06T03:47:15;101252.31;;;19.61;94.87
54308;BME280;40208;39.778;2.710;2023-08-06T03:50:00;101329.78;;;20.06;96.12
54308;BME280;40208;39.778;2.710;2023-08-06T03:52:45;101226.13;;;19.63;96.71
54308;BME280;40208;39.778;2.710;2023-08-06T03:55:30;101310.44;;;20.12;97.05
54308;BME280;40208;39.778;2.710;2023-08-06T03:58:14;101309.59;;;20.11;96.08
54308;BME280;40208;39.778;2.710;2023-08-06T04:01:00;101267.50;;;19.86;96.78
54308;BME280;40208;39.778;2.710;2023-08-06T04:03:45;101284.88;;;19.82;97.60
54308;BME280;40208;39.778;2.710;2023-08-06T04:06:30;101180.78;;;19.11;99.37
54308;BME280;40208;39.778;2.710;2023-08-06T04:09:15;101321.66;;;19.95;99.93
54308;BME280;40208;39.778;2.710;2023-08-06T04:11:59;101041.41;;;18.43;99.44
54308;BME280;40208;39.778;2.710;2023-08-06T04:14:46;101186.38;;;19.32;99.19
54308;BME280;40208;39.778;2.710;2023-08-06T04:17:31;101244.22;;;19.85;99.23
54308;BME280;40208;39.778;2.710;2023-08-06T04:20:15;101309.38;;;20.26;99.09
54308;BME280;40208;39.778;2.710;2023-08-06T04:23:05;101315.41;;;20.29;97.89
54308;BME280;40208;39.778;2.710;2023-08-06T04:25:50;101194.25;;;19.70;97.11
54308;BME280;40208;39.778;2.710;2023-08-06T04:28:35;101157.47;;;19.58;95.72
54308;BME280;40208;39.778;2.710;2023-08-06T04:31:19;101203.97;;;19.84;94.49
54308;BME280;40208;39.778;2.710;2023-08-06T04:34:04;101310.34;;;20.60;94.86
54308;BME280;40208;39.778;2.710;2023-08-06T04:36:49;101339.88;;;20.73;95.18
54308;BME280;40208;39.778;2.710;2023-08-06T04:39:34;101210.00;;;19.99;94.34
54308;BME280;40208;39.778;2.710;2023-08-06T04:42:18;101337.56;;;20.80;94.58
54308;BME280;40208;39.778;2.710;2023-08-06T04:45:03;101252.06;;;20.46;94.88
54308;BME280;40208;39.778;2.710;2023-08-06T04:47:49;101300.50;;;20.59;95.06
54308;BME280;40208;39.778;2.710;2023-08-06T04:50:33;101339.78;;;20.86;95.33
54308;BME280;40208;39.778;2.710;2023-08-06T04:53:18;101288.59;;;20.50;96.06
54308;BME280;40208;39.778;2.710;2023-08-06T04:56:03;101336.81;;;20.78;96.92
54308;BME280;40208;39.778;2.710;2023-08-06T04:58:48;101195.16;;;20.04;98.19
54308;BME280;40208;39.778;2.710;2023-08-06T05:01:33;101342.81;;;20.92;99.29
54308;BME280;40208;39.778;2.710;2023-08-06T05:04:18;101218.81;;;20.23;100.00
54308;BME280;40208;39.778;2.710;2023-08-06T05:07:03;101337.69;;;21.01;100.00
54308;BME280;40208;39.778;2.710;2023-08-06T05:09:48;101340.50;;;20.99;100.00
54308;BME280;40208;39.778;2.710;2023-08-06T05:12:32;101285.53;;;20.55;100.00
54308;BME280;40208;39.778;2.710;2023-08-06T05:15:17;101287.47;;;20.42;100.00
54308;BME280;40208;39.778;2.710;2023-08-06T05:18:02;101311.53;;;20.56;100.00
54308;BME280;40208;39.778;2.710;2023-08-06T05:20:47;101331.91;;;20.71;100.00
54308;BME280;40208;39.778;2.710;2023-08-06T05:23:32;101336.34;;;20.84;100.00
54308;BME280;40208;39.778;2.710;2023-08-06T05:26:17;101320.16;;;20.72;100.00
54308;BME280;40208;39.778;2.710;2023-08-06T05:29:03;101348.59;;;20.99;100.00
54308;BME280;40208;39.778;2.710;2023-08-06T05:31:48;101339.03;;;21.06;100.00
54308;BME280;40208;39.778;2.710;2023-08-06T05:34:33;101345.63;;;21.13;100.00
54308;BME280;40208;39.778;2.710;2023-08-06T05:37:18;101207.81;;;20.38;100.00
54308;BME280;40208;39.778;2.710;2023-08-06T05:40:03;101001.47;;;19.10;100.00
54308;BME280;40208;39.778;2.710;2023-08-06T05:42:48;101305.78;;;20.94;100.00
54308;BME280;40208;39.778;2.710;2023-08-06T05:45:33;101336.44;;;21.16;100.00
54308;BME280;40208;39.778;2.710;2023-08-06T05:48:18;101252.22;;;20.67;100.00
54308;BME280;40208;39.778;2.710;2023-08-06T05:51:03;101164.69;;;20.15;100.00
54308;BME280;40208;39.778;2.710;2023-08-06T05:53:48;101367.84;;;21.39;100.00
54308;BME280;40208;39.778;2.710;2023-08-06T05:56:34;101384.31;;;21.48;100.00
54308;BME280;40208;39.778;2.710;2023-08-06T05:59:19;101274.78;;;20.89;100.00
54308;BME280;40208;39.778;2.710;2023-08-06T06:02:04;101362.56;;;21.38;100.00
54308;BME280;40208;39.778;2.710;2023-08-06T06:04:49;101273.41;;;20.83;100.00
54308;BME280;40208;39.778;2.710;2023-08-06T06:07:33;101374.34;;;21.48;100.00
54308;BME280;40208;39.778;2.710;2023-08-06T06:10:18;101365.25;;;21.49;100.00
54308;BME280;40208;39.778;2.710;2023-08-06T06:13:03;101388.78;;;21.70;100.00
54308;BME280;40208;39.778;2.710;2023-08-06T06:15:48;101389.16;;;21.76;100.00
54308;BME280;40208;39.778;2.710;2023-08-06T06:18:33;101272.50;;;21.16;100.00
54308;BME280;40208;39.778;2.710;2023-08-06T06:21:17;101373.53;;;21.80;100.00
54308;BME280;40208;39.778;2.710;2023-08-06T06:24:03;101377.59;;;21.86;100.00
54308;BME280;40208;39.778;2.710;2023-08-06T06:26:48;101234.41;;;20.99;100.00
54308;BME280;40208;39.778;2.710;2023-08-06T06:29:33;101359.53;;;21.75;100.00
54308;BME280;40208;39.778;2.710;2023-08-06T06:32:18;101339.69;;;21.65;100.00
54308;BME280;40208;39.778;2.710;2023-08-06T06:35:03;101300.81;;;21.45;100.00
54308;BME280;40208;39.778;2.710;2023-08-06T06:37:47;101365.50;;;21.90;100.00
54308;BME280;40208;39.778;2.710;2023-08-06T06:40:33;101358.41;;;21.89;100.00
54308;BME280;40208;39.778;2.710;2023-08-06T06:43:18;101285.13;;;21.50;100.00
54308;BME280;40208;39.778;2.710;2023-08-06T06:46:03;101320.16;;;21.61;100.00
54308;BME280;40208;39.778;2.710;2023-08-06T06:48:48;101298.41;;;21.74;100.00
54308;BME280;40208;39.778;2.710;2023-08-06T06:51:32;101302.31;;;21.81;100.00
54308;BME280;40208;39.778;2.710;2023-08-06T06:54:17;101405.91;;;22.56;100.00
54308;BME280;40208;39.778;2.710;2023-08-06T06:57:03;101424.28;;;22.73;100.00
54308;BME280;40208;39.778;2.710;2023-08-06T06:59:47;101406.63;;;22.79;100.00
54308;BME280;40208;39.778;2.710;2023-08-06T07:02:32;101284.59;;;22.09;100.00
54308;BME280;40208;39.778;2.710;2023-08-06T07:05:17;101352.81;;;22.55;100.00
54308;BME280;40208;39.778;2.710;2023-08-06T07:08:02;101330.22;;;22.44;100.00
54308;BME280;40208;39.778;2.710;2023-08-06T07:10:47;101380.88;;;22.84;100.00
54308;BME280;40208;39.778;2.710;2023-08-06T07:13:32;101269.41;;;22.18;100.00
54308;BME280;40208;39.778;2.710;2023-08-06T07:16:17;101411.22;;;22.99;100.00
54308;BME280;40208;39.778;2.710;2023-08-06T07:19:02;101436.56;;;23.29;100.00
54308;BME280;40208;39.778;2.710;2023-08-06T07:21:47;101418.28;;;23.21;100.00
54308;BME280;40208;39.778;2.710;2023-08-06T07:24:32;101282.16;;;22.48;100.00
54308;BME280;40208;39.778;2.710;2023-08-06T07:27:16;101407.03;;;23.26;100.00
54308;BME280;40208;39.778;2.710;2023-08-06T07:30:02;101335.63;;;22.96;100.00
54308;BME280;40208;39.778;2.710;2023-08-06T07:32:47;101436.25;;;23.63;100.00
54308;BME280;40208;39.778;2.710;2023-08-06T07:35:32;101387.00;;;23.48;100.00
54308;BME280;40208;39.778;2.710;2023-08-06T07:38:19;101368.16;;;23.37;100.00
54308;BME280;40208;39.778;2.710;2023-08-06T07:41:11;101427.34;;;23.82;100.00
54308;BME280;40208;39.778;2.710;2023-08-06T07:43:56;101387.16;;;23.56;100.00
54308;BME280;40208;39.778;2.710;2023-08-06T07:46:41;101398.59;;;23.69;100.00
54308;BME280;40208;39.778;2.710;2023-08-06T07:49:26;101442.78;;;24.01;100.00
54308;BME280;40208;39.778;2.710;2023-08-06T07:52:11;101266.66;;;22.91;100.00
54308;BME280;40208;39.778;2.710;2023-08-06T07:54:56;101450.06;;;24.10;100.00
54308;BME280;40208;39.778;2.710;2023-08-06T07:57:40;101394.03;;;23.70;100.00
54308;BME280;40208;39.778;2.710;2023-08-06T08:00:25;101453.63;;;24.20;100.00
54308;BME280;40208;39.778;2.710;2023-08-06T08:03:11;101464.06;;;24.25;100.00
54308;BME280;40208;39.778;2.710;2023-08-06T08:05:57;101472.66;;;24.30;100.00
54308;BME280;40208;39.778;2.710;2023-08-06T08:08:44;101456.09;;;24.33;100.00
54308;BME280;40208;39.778;2.710;2023-08-06T08:11:29;101328.41;;;23.57;100.00
54308;BME280;40208;39.778;2.710;2023-08-06T08:14:13;101419.09;;;24.12;100.00
54308;BME280;40208;39.778;2.710;2023-08-06T08:16:58;101328.72;;;23.73;100.00
54308;BME280;40208;39.778;2.710;2023-08-06T08:19:43;101435.66;;;24.39;100.00
54308;BME280;40208;39.778;2.710;2023-08-06T08:22:28;101367.84;;;24.09;100.00
54308;BME280;40208;39.778;2.710;2023-08-06T08:25:13;101408.09;;;24.33;100.00
54308;BME280;40208;39.778;2.710;2023-08-06T08:27:58;101461.09;;;24.67;100.00
54308;BME280;40208;39.778;2.710;2023-08-06T08:30:43;101464.22;;;24.72;100.00
54308;BME280;40208;39.778;2.710;2023-08-06T08:33:27;101390.38;;;24.39;100.00
54308;BME280;40208;39.778;2.710;2023-08-06T08:36:12;101467.50;;;24.85;100.00
54308;BME280;40208;39.778;2.710;2023-08-06T08:38:57;101331.88;;;24.17;100.00
54308;BME280;40208;39.778;2.710;2023-08-06T08:41:42;101351.13;;;24.33;100.00
54308;BME280;40208;39.778;2.710;2023-08-06T08:44:27;101445.78;;;24.85;100.00
54308;BME280;40208;39.778;2.710;2023-08-06T08:47:14;101422.59;;;24.91;100.00
54308;BME280;40208;39.778;2.710;2023-08-06T08:50:00;101400.63;;;24.74;100.00
54308;BME280;40208;39.778;2.710;2023-08-06T08:52:45;101452.59;;;25.09;100.00
54308;BME280;40208;39.778;2.710;2023-08-06T08:55:33;101469.88;;;25.17;100.00
54308;BME280;40208;39.778;2.710;2023-08-06T08:58:18;101472.28;;;25.30;100.00
54308;BME280;40208;39.778;2.710;2023-08-06T09:01:04;101359.81;;;24.66;100.00
54308;BME280;40208;39.778;2.710;2023-08-06T09:03:51;101461.50;;;25.38;100.00
54308;BME280;40208;39.778;2.710;2023-08-06T09:06:38;101335.69;;;24.63;100.00
54308;BME280;40208;39.778;2.710;2023-08-06T09:09:31;101469.91;;;25.45;100.00
54308;BME280;40208;39.778;2.710;2023-08-06T09:12:16;101462.63;;;25.46;100.00
54308;BME280;40208;39.778;2.710;2023-08-06T09:15:01;101437.94;;;25.39;100.00
54308;BME280;40208;39.778;2.710;2023-08-06T09:17:48;101467.88;;;25.57;100.00
54308;BME280;40208;39.778;2.710;2023-08-06T09:20:34;101452.16;;;25.51;100.00
54308;BME280;40208;39.778;2.710;2023-08-06T09:23:21;101442.47;;;25.38;100.00
54308;BME280;40208;39.778;2.710;2023-08-06T09:26:12;101474.41;;;25.64;100.00
54308;BME280;40208;39.778;2.710;2023-08-06T09:28:59;101465.09;;;25.67;100.00
54308;BME280;40208;39.778;2.710;2023-08-06T09:34:29;101263.84;;;24.58;100.00
54308;BME280;40208;39.778;2.710;2023-08-06T09:37:14;101466.00;;;25.85;100.00
54308;BME280;40208;39.778;2.710;2023-08-06T09:39:59;101458.69;;;25.86;100.00
54308;BME280;40208;39.778;2.710;2023-08-06T09:42:44;101468.81;;;25.93;100.00
54308;BME280;40208;39.778;2.710;2023-08-06T09:45:32;101447.94;;;25.94;100.00
54308;BME280;40208;39.778;2.710;2023-08-06T09:48:17;101456.28;;;26.10;100.00
54308;BME280;40208;39.778;2.710;2023-08-06T09:51:03;101418.06;;;25.84;100.00
54308;BME280;40208;39.778;2.710;2023-08-06T09:53:48;101467.38;;;26.17;100.00
54308;BME280;40208;39.778;2.710;2023-08-06T09:56:33;101464.19;;;26.21;100.00
54308;BME280;40208;39.778;2.710;2023-08-06T09:59:25;101435.66;;;26.08;100.00
54308;BME280;40208;39.778;2.710;2023-08-06T10:02:12;101480.06;;;26.26;100.00
54308;BME280;40208;39.778;2.710;2023-08-06T10:04:58;101471.03;;;26.26;100.00
54308;BME280;40208;39.778;2.710;2023-08-06T10:07:44;101473.75;;;26.26;100.00
54308;BME280;40208;39.778;2.710;2023-08-06T10:10:29;101406.84;;;25.97;100.00
54308;BME280;40208;39.778;2.710;2023-08-06T10:13:16;101464.81;;;26.33;100.00
54308;BME280;40208;39.778;2.710;2023-08-06T10:16:03;101449.22;;;26.17;100.00
54308;BME280;40208;39.778;2.710;2023-08-06T10:18:49;101331.09;;;25.56;100.00
54308;BME280;40208;39.778;2.710;2023-08-06T10:21:34;101403.50;;;26.03;100.00
54308;BME280;40208;39.778;2.710;2023-08-06T10:24:19;101465.44;;;26.45;100.00
54308;BME280;40208;39.778;2.710;2023-08-06T10:27:04;101335.84;;;25.72;100.00
54308;BME280;40208;39.778;2.710;2023-08-06T10:29:50;101424.78;;;26.26;100.00
54308;BME280;40208;39.778;2.710;2023-08-06T10:33:02;101451.53;;;26.48;100.00
54308;BME280;40208;39.778;2.710;2023-08-06T10:35:48;101456.59;;;26.61;100.00
54308;BME280;40208;39.778;2.710;2023-08-06T10:38:48;101429.19;;;26.44;100.00
54308;BME280;40208;39.778;2.710;2023-08-06T10:41:32;101446.94;;;26.67;100.00
54308;BME280;40208;39.778;2.710;2023-08-06T10:44:17;101330.44;;;26.08;100.00
54308;BME280;40208;39.778;2.710;2023-08-06T10:47:26;101450.16;;;26.88;100.00
54308;BME280;40208;39.778;2.710;2023-08-06T10:50:15;101417.06;;;26.75;100.00
54308;BME280;40208;39.778;2.710;2023-08-06T10:53:05;101299.47;;;26.09;100.00
54308;BME280;40208;39.778;2.710;2023-08-06T10:55:50;101456.88;;;27.02;100.00
54308;BME280;40208;39.778;2.710;2023-08-06T10:58:35;101450.25;;;27.04;100.00
54308;BME280;40208;39.778;2.710;2023-08-06T11:01:22;101441.78;;;27.07;100.00
54308;BME280;40208;39.778;2.710;2023-08-06T11:04:07;101445.88;;;27.12;100.00
54308;BME280;40208;39.778;2.710;2023-08-06T11:06:52;101342.94;;;26.45;100.00
54308;BME280;40208;39.778;2.710;2023-08-06T11:09:37;101446.56;;;27.14;100.00
54308;BME280;40208;39.778;2.710;2023-08-06T11:12:22;101085.75;;;24.92;100.00
54308;BME280;40208;39.778;2.710;2023-08-06T11:15:08;101450.31;;;27.13;100.00
54308;BME280;40208;39.778;2.710;2023-08-06T11:17:53;101441.88;;;26.98;100.00
54308;BME280;40208;39.778;2.710;2023-08-06T11:20:38;101450.84;;;27.16;100.00
54308;BME280;40208;39.778;2.710;2023-08-06T11:23:23;101454.13;;;27.20;100.00
54308;BME280;40208;39.778;2.710;2023-08-06T11:26:08;101425.44;;;27.07;100.00
54308;BME280;40208;39.778;2.710;2023-08-06T11:28:53;101370.06;;;26.73;100.00
54308;BME280;40208;39.778;2.710;2023-08-06T11:31:38;101375.13;;;26.68;100.00
54308;BME280;40208;39.778;2.710;2023-08-06T11:34:23;101369.69;;;26.68;100.00
54308;BME280;40208;39.778;2.710;2023-08-06T11:37:08;101342.72;;;26.56;100.00
54308;BME280;40208;39.778;2.710;2023-08-06T11:39:54;101323.41;;;26.50;100.00
54308;BME280;40208;39.778;2.710;2023-08-06T11:42:40;101335.63;;;26.63;100.00
54308;BME280;40208;39.778;2.710;2023-08-06T11:45:27;101345.31;;;26.66;100.00
54308;BME280;40208;39.778;2.710;2023-08-06T11:48:12;101430.56;;;27.19;100.00
54308;BME280;40208;39.778;2.710;2023-08-06T11:50:56;101323.88;;;26.63;100.00
54308;BME280;40208;39.778;2.710;2023-08-06T11:53:48;101197.50;;;25.87;100.00
54308;BME280;40208;39.778;2.710;2023-08-06T11:56:33;101380.72;;;26.92;100.00
54308;BME280;40208;39.778;2.710;2023-08-06T11:59:19;101426.75;;;27.30;100.00
54308;BME280;40208;39.778;2.710;2023-08-06T12:02:09;101305.13;;;26.60;100.00
54308;BME280;40208;39.778;2.710;2023-08-06T12:05:13;101327.88;;;26.77;100.00
54308;BME280;40208;39.778;2.710;2023-08-06T12:08:00;101409.06;;;27.34;100.00
54308;BME280;40208;39.778;2.710;2023-08-06T12:10:45;101421.88;;;27.41;100.00
54308;BME280;40208;39.778;2.710;2023-08-06T12:13:31;101407.81;;;27.20;100.00
54308;BME280;40208;39.778;2.710;2023-08-06T12:16:16;101310.00;;;26.74;100.00
54308;BME280;40208;39.778;2.710;2023-08-06T12:19:03;101217.47;;;26.22;100.00
54308;BME280;40208;39.778;2.710;2023-08-06T12:21:48;101415.88;;;27.38;100.00
54308;BME280;40208;39.778;2.710;2023-08-06T12:24:33;101407.56;;;27.39;100.00
54308;BME280;40208;39.778;2.710;2023-08-06T12:27:18;101390.16;;;27.32;100.00
54308;BME280;40208;39.778;2.710;2023-08-06T12:30:04;101377.84;;;27.20;100.00
54308;BME280;40208;39.778;2.710;2023-08-06T12:32:49;101374.91;;;27.21;100.00
54308;BME280;40208;39.778;2.710;2023-08-06T12:35:36;101273.31;;;26.60;100.00
54308;BME280;40208;39.778;2.710;2023-08-06T12:38:23;101222.31;;;26.10;100.00
54308;BME280;40208;39.778;2.710;2023-08-06T12:41:07;101287.50;;;26.72;100.00
54308;BME280;40208;39.778;2.710;2023-08-06T12:43:52;101348.09;;;27.08;100.00
54308;BME280;40208;39.778;2.710;2023-08-06T12:46:37;101149.34;;;26.06;100.00
54308;BME280;40208;39.778;2.710;2023-08-06T12:49:22;101291.16;;;26.89;100.00
54308;BME280;40208;39.778;2.710;2023-08-06T12:52:07;101302.28;;;27.04;100.00
54308;BME280;40208;39.778;2.710;2023-08-06T12:54:52;101206.53;;;26.48;100.00
54308;BME280;40208;39.778;2.710;2023-08-06T12:57:37;101309.97;;;27.08;100.00
54308;BME280;40208;39.778;2.710;2023-08-06T13:00:21;101325.47;;;27.08;100.00
54308;BME280;40208;39.778;2.710;2023-08-06T13:03:06;101331.69;;;27.26;100.00
54308;BME280;40208;39.778;2.710;2023-08-06T13:05:51;101376.44;;;27.66;100.00
54308;BME280;40208;39.778;2.710;2023-08-06T13:08:36;101389.63;;;27.79;100.00
54308;BME280;40208;39.778;2.710;2023-08-06T13:11:21;101292.31;;;27.21;100.00
54308;BME280;40208;39.778;2.710;2023-08-06T13:14:10;101310.25;;;27.32;100.00
54308;BME280;40208;39.778;2.710;2023-08-06T13:16:55;101382.28;;;27.80;100.00
54308;BME280;40208;39.778;2.710;2023-08-06T13:19:40;101343.16;;;27.55;100.00
54308;BME280;40208;39.778;2.710;2023-08-06T13:22:25;101358.19;;;27.59;100.00
54308;BME280;40208;39.778;2.710;2023-08-06T13:25:09;101390.00;;;27.84;100.00
54308;BME280;40208;39.778;2.710;2023-08-06T13:27:54;101301.72;;;27.35;100.00
54308;BME280;40208;39.778;2.710;2023-08-06T13:30:40;101293.00;;;27.23;100.00
54308;BME280;40208;39.778;2.710;2023-08-06T13:33:26;101263.00;;;27.15;100.00
54308;BME280;40208;39.778;2.710;2023-08-06T13:36:11;101291.31;;;27.38;100.00
54308;BME280;40208;39.778;2.710;2023-08-06T13:38:56;101295.44;;;27.42;100.00
54308;BME280;40208;39.778;2.710;2023-08-06T13:41:41;101319.31;;;27.57;100.00
54308;BME280;40208;39.778;2.710;2023-08-06T13:44:25;101310.44;;;27.55;100.00
54308;BME280;40208;39.778;2.710;2023-08-06T13:47:10;101301.72;;;27.43;100.00
54308;BME280;40208;39.778;2.710;2023-08-06T13:49:55;101001.19;;;25.57;100.00
54308;BME280;40208;39.778;2.710;2023-08-06T13:52:39;100996.91;;;25.55;100.00
54308;BME280;40208;39.778;2.710;2023-08-06T13:55:24;101085.06;;;26.05;100.00
54308;BME280;40208;39.778;2.710;2023-08-06T13:58:09;101164.34;;;26.52;100.00
54308;BME280;40208;39.778;2.710;2023-08-06T14:00:54;101254.13;;;27.13;100.00
54308;BME280;40208;39.778;2.710;2023-08-06T14:03:39;101228.88;;;27.02;100.00
54308;BME280;40208;39.778;2.710;2023-08-06T14:06:24;101078.72;;;25.96;100.00
54308;BME280;40208;39.778;2.710;2023-08-06T14:09:08;101024.56;;;25.76;100.00
54308;BME280;40208;39.778;2.710;2023-08-06T14:11:56;101248.41;;;27.32;100.00
54308;BME280;40208;39.778;2.710;2023-08-06T14:14:41;101298.88;;;27.53;100.00
54308;BME280;40208;39.778;2.710;2023-08-06T14:17:26;101105.81;;;26.48;100.00
54308;BME280;40208;39.778;2.710;2023-08-06T14:20:11;101322.94;;;27.65;100.00
54308;BME280;40208;39.778;2.710;2023-08-06T14:22:57;101101.19;;;26.40;100.00
54308;BME280;40208;39.778;2.710;2023-08-06T14:25:41;101123.69;;;26.51;100.00
54308;BME280;40208;39.778;2.710;2023-08-06T14:28:26;101158.97;;;26.69;100.00